Time;durP1;ratioP1;P1;durP2;ratioP2;P2;SDS_P1;SDS_P2;PMS_P1;PMS_P2;Temp;Humidity;BMP_temperature;BMP_pressure;BME280_temperature;BME280_humidity;BME280_pressure;Samples;Min_cycle;Max_cycle;Signal;HPM_P1;HPM_P2
2022/11/18 00:01:50;;;;;;;;;;;4.30;93.50;;;;;;4993381;28;20516;-48
2022/11/18 00:04:17;;;;;;;;;;;4.30;93.40;;;;;;5009178;28;19964;-48
2022/11/18 00:06:42;;;;;;;;;;;4.20;93.40;;;;;;4993501;28;19933;-48
2022/11/18 00:09:09;;;;;;;;;;;4.20;93.50;;;;;;4993688;28;19917;-51
2022/11/18 00:14:22;;;;;;;;;;;4.20;93.50;;;;;;4996455;28;20062;-48
2022/11/18 00:16:58;;;;;;;;;;;4.20;93.60;;;;;;4993252;28;20014;-47
2022/11/18 00:19:26;;;;;;;;;;;4.20;93.50;;;;;;5011508;28;20259;-48
2022/11/18 00:21:52;;;;;;;;;;;4.10;93.50;;;;;;5013124;28;19910;-46
2022/11/18 00:24:19;;;;;;;;;;;4.20;93.50;;;;;;5012894;28;19968;-46
2022/11/18 00:26:46;;;;;;;;;;;4.20;93.50;;;;;;5008786;28;19937;-46
2022/11/18 00:29:19;;;;;;;;;;;4.20;93.50;;;;;;4993570;28;19992;-46
2022/11/18 00:31:45;;;;;;;;;;;4.20;93.50;;;;;;5012789;28;20000;-46
2022/11/18 00:34:15;;;;;;;;;;;4.20;93.50;;;;;;5013105;28;19905;-46
2022/11/18 00:36:43;;;;;;;;;;;4.20;93.50;;;;;;5002004;28;20003;-46
2022/11/18 00:39:12;;;;;;;;;;;4.20;93.60;;;;;;5011233;28;19924;-46
2022/11/18 00:44:24;;;;;;;;;;;4.20;93.40;;;;;;5003531;28;19916;-45
2022/11/18 00:46:51;;;;;;;;;;;4.20;93.40;;;;;;5005093;28;20361;-46
2022/11/18 00:49:17;;;;;;;;;;;4.10;93.40;;;;;;5003543;28;19914;-46
2022/11/18 00:51:44;;;;;;;;;;;4.20;93.30;;;;;;4992946;28;19909;-46
2022/11/18 00:54:11;;;;;;;;;;;4.10;93.30;;;;;;4993244;28;20274;-46
2022/11/18 00:56:38;;;;;;;;;;;4.10;93.40;;;;;;4993311;28;20036;-46
2022/11/18 00:59:04;;;;;;;;;;;4.10;93.40;;;;;;4993852;28;19910;-46
2022/11/18 01:01:31;;;;;;;;;;;4.00;93.30;;;;;;4996461;28;19956;-46
2022/11/18 01:04:01;;;;;;;;;;;4.10;93.30;;;;;;5008291;28;19971;-45
2022/11/18 01:06:27;;;;;;;;;;;4.10;93.40;;;;;;5002674;28;19924;-47
2022/11/18 01:08:53;;;;;;;;;;;4.10;93.40;;;;;;4997209;28;19922;-46
2022/11/18 01:14:05;;;;;;;;;;;4.10;93.20;;;;;;4996948;28;20358;-45
2022/11/18 01:16:31;;;;;;;;;;;4.10;93.10;;;;;;4996464;28;19968;-45
2022/11/18 01:18:58;;;;;;;;;;;4.00;93.10;;;;;;5010718;28;19914;-47
2022/11/18 01:21:25;;;;;;;;;;;4.10;93.20;;;;;;5000624;28;20417;-45
2022/11/18 01:23:52;;;;;;;;;;;4.10;93.10;;;;;;5015876;28;19913;-45
2022/11/18 01:26:18;;;;;;;;;;;4.10;93.20;;;;;;5010596;28;20362;-46
2022/11/18 01:28:45;;;;;;;;;;;4.00;93.10;;;;;;4996446;28;19914;-45
2022/11/18 01:31:17;;;;;;;;;;;4.10;93.10;;;;;;4995975;28;19909;-47
2022/11/18 01:33:45;;;;;;;;;;;4.00;93.10;;;;;;4996328;28;19913;-47
2022/11/18 01:36:20;;;;;;;;;;;4.10;93.10;;;;;;4996204;28;19951;-48
2022/11/18 01:38:47;;;;;;;;;;;4.00;93.10;;;;;;4996091;28;19921;-49
2022/11/18 01:41:14;;;;;;;;;;;4.10;93.20;;;;;;4996220;28;20317;-48
2022/11/18 01:44:07;;;;;;;;;;;4.20;93.30;;;;;;4995529;28;19940;-49
2022/11/18 01:46:33;;;;;;;;;;;4.20;93.10;;;;;;4987246;28;19909;-48
2022/11/18 01:49:17;;;;;;;;;;;4.10;93.10;;;;;;4995894;28;19932;-50
2022/11/18 01:51:47;;;;;;;;;;;4.10;93.20;;;;;;4995628;28;20401;-48
2022/11/18 01:54:19;;;;;;;;;;;4.10;93.20;;;;;;5010248;28;19920;-47
2022/11/18 01:56:47;;;;;;;;;;;4.10;93.30;;;;;;5008393;28;19906;-47
2022/11/18 01:59:13;;;;;;;;;;;4.10;93.20;;;;;;4996859;28;19979;-47
2022/11/18 02:01:41;;;;;;;;;;;4.10;93.20;;;;;;5015043;28;19909;-46
2022/11/18 02:04:08;;;;;;;;;;;4.10;93.10;;;;;;5015370;28;19948;-47
2022/11/18 02:06:34;;;;;;;;;;;4.00;93.00;;;;;;5007093;28;19932;-46
2022/11/18 02:09:00;;;;;;;;;;;4.00;93.10;;;;;;5006479;28;20520;-47
2022/11/18 02:14:14;;;;;;;;;;;4.00;93.10;;;;;;5000791;28;20596;-46
2022/11/18 02:16:40;;;;;;;;;;;4.00;93.10;;;;;;5014908;28;19917;-46
2022/11/18 02:19:32;;;;;;;;;;;4.00;93.20;;;;;;5003381;28;19928;-46
2022/11/18 02:22:10;;;;;;;;;;;4.00;93.30;;;;;;4993802;28;20347;-48
2022/11/18 02:24:54;;;;;;;;;;;4.00;93.30;;;;;;5003023;28;19984;-45
2022/11/18 02:27:25;;;;;;;;;;;4.00;93.20;;;;;;5005553;28;20031;-46
2022/11/18 02:30:08;;;;;;;;;;;4.10;93.30;;;;;;5014727;28;19910;-46
2022/11/18 02:32:40;;;;;;;;;;;4.10;93.40;;;;;;5007300;28;19914;-46
2022/11/18 02:35:24;;;;;;;;;;;4.10;93.20;;;;;;4995037;28;19953;-46
2022/11/18 02:37:53;;;;;;;;;;;4.00;93.30;;;;;;4995112;28;20294;-46
2022/11/18 02:40:37;;;;;;;;;;;4.00;93.10;;;;;;4994958;28;19917;-45
2022/11/18 02:43:21;;;;;;;;;;;4.00;93.20;;;;;;5000901;28;20004;-47
2022/11/18 02:45:50;;;;;;;;;;;4.00;93.00;;;;;;5005405;28;20298;-46
2022/11/18 02:48:17;;;;;;;;;;;4.00;93.10;;;;;;4994774;28;20474;-45
2022/11/18 02:50:47;;;;;;;;;;;4.00;93.10;;;;;;4994614;28;19913;-45
2022/11/18 02:53:20;;;;;;;;;;;4.00;92.90;;;;;;4994673;28;19914;-45
2022/11/18 02:55:47;;;;;;;;;;;4.00;92.80;;;;;;4994212;28;19917;-46
2022/11/18 02:58:16;;;;;;;;;;;4.00;92.70;;;;;;4994745;28;19920;-46
2022/11/18 03:00:43;;;;;;;;;;;4.00;92.90;;;;;;4994534;28;19913;-45
2022/11/18 03:03:29;;;;;;;;;;;4.00;92.80;;;;;;4994506;28;19916;-46
2022/11/18 03:06:03;;;;;;;;;;;4.00;92.70;;;;;;4994661;28;19916;-46
2022/11/18 03:08:36;;;;;;;;;;;4.00;92.80;;;;;;4994242;28;19917;-45
2022/11/18 03:11:11;;;;;;;;;;;3.90;92.70;;;;;;5009512;28;19905;-45
2022/11/18 03:13:47;;;;;;;;;;;3.90;92.70;;;;;;4994724;28;19918;-45
2022/11/18 03:16:17;;;;;;;;;;;3.90;92.70;;;;;;4994196;28;19991;-45
2022/11/18 03:18:53;;;;;;;;;;;3.90;92.60;;;;;;4999275;28;19952;-44
2022/11/18 03:21:23;;;;;;;;;;;3.90;92.70;;;;;;4998733;28;19972;-46
2022/11/18 03:24:01;;;;;;;;;;;3.90;92.60;;;;;;5007274;28;19917;-46
2022/11/18 03:26:30;;;;;;;;;;;3.90;92.70;;;;;;5012873;28;19905;-45
2022/11/18 03:29:08;;;;;;;;;;;3.90;92.60;;;;;;5013742;28;19905;-45
2022/11/18 03:31:52;;;;;;;;;;;3.90;92.70;;;;;;5013724;28;20327;-44
2022/11/18 03:34:30;;;;;;;;;;;3.90;92.70;;;;;;5000587;28;20306;-45
2022/11/18 03:36:59;;;;;;;;;;;3.90;92.50;;;;;;4994310;28;19920;-44
2022/11/18 03:39:28;;;;;;;;;;;3.90;92.60;;;;;;4996633;28;20367;-45
2022/11/18 03:41:59;;;;;;;;;;;3.90;92.60;;;;;;5013611;28;19905;-45
2022/11/18 03:44:29;;;;;;;;;;;3.90;92.40;;;;;;4998945;28;19921;-45
2022/11/18 03:47:03;;;;;;;;;;;3.80;92.40;;;;;;5009118;28;19910;-44
2022/11/18 03:49:34;;;;;;;;;;;3.90;92.30;;;;;;4993862;28;20258;-46
2022/11/18 03:52:05;;;;;;;;;;;3.80;92.10;;;;;;4993184;28;19920;-45
2022/11/18 03:54:34;;;;;;;;;;;3.80;92.10;;;;;;4993453;28;19933;-45
2022/11/18 03:57:05;;;;;;;;;;;3.80;92.00;;;;;;5009153;28;19913;-45
2022/11/18 03:59:49;;;;;;;;;;;3.80;92.00;;;;;;4993809;28;19977;-44
2022/11/18 04:02:33;;;;;;;;;;;3.80;92.00;;;;;;4993373;28;19916;-45
2022/11/18 04:05:01;;;;;;;;;;;3.80;92.00;;;;;;4992822;28;19914;-44
2022/11/18 04:07:51;;;;;;;;;;;3.80;91.80;;;;;;4993613;28;19925;-44
2022/11/18 04:10:20;;;;;;;;;;;3.70;91.80;;;;;;5008464;28;19913;-44
2022/11/18 04:12:53;;;;;;;;;;;3.80;91.80;;;;;;4994286;28;19914;-44
2022/11/18 04:15:18;;;;;;;;;;;3.70;91.80;;;;;;4994922;28;19918;-44
2022/11/18 04:17:44;;;;;;;;;;;3.80;91.90;;;;;;4993534;28;20009;-44
2022/11/18 04:20:16;;;;;;;;;;;3.80;91.80;;;;;;4993027;28;19913;-43
2022/11/18 04:22:46;;;;;;;;;;;3.70;91.80;;;;;;4993378;28;20315;-44
2022/11/18 04:25:13;;;;;;;;;;;3.70;91.90;;;;;;4993310;28;19905;-43
2022/11/18 04:27:40;;;;;;;;;;;3.80;91.90;;;;;;5011993;28;19925;-44
2022/11/18 04:30:08;;;;;;;;;;;3.70;91.80;;;;;;5004010;28;19909;-43
2022/11/18 04:32:35;;;;;;;;;;;3.70;91.60;;;;;;4995495;28;19914;-46
2022/11/18 04:35:00;;;;;;;;;;;3.60;91.60;;;;;;5011507;28;19910;-46
2022/11/18 04:37:27;;;;;;;;;;;3.70;91.70;;;;;;4997498;28;19921;-44
2022/11/18 04:39:53;;;;;;;;;;;3.70;91.70;;;;;;4997271;28;20359;-43
2022/11/18 04:42:20;;;;;;;;;;;3.70;91.80;;;;;;4997178;28;19906;-44
2022/11/18 04:44:47;;;;;;;;;;;3.70;91.70;;;;;;4997263;28;19985;-44
2022/11/18 04:47:12;;;;;;;;;;;3.70;91.70;;;;;;4996737;28;19913;-43
2022/11/18 04:49:39;;;;;;;;;;;3.70;91.70;;;;;;4997313;28;20000;-42
2022/11/18 04:52:05;;;;;;;;;;;3.70;91.60;;;;;;4996568;28;19916;-43
2022/11/18 04:54:30;;;;;;;;;;;3.70;91.80;;;;;;4996886;28;19910;-45
2022/11/18 04:56:57;;;;;;;;;;;3.70;92.00;;;;;;5012179;28;19920;-43
2022/11/18 04:59:25;;;;;;;;;;;3.80;91.90;;;;;;4999657;28;19937;-44
2022/11/18 05:01:52;;;;;;;;;;;3.80;91.90;;;;;;5016478;28;20055;-43
2022/11/18 05:04:20;;;;;;;;;;;3.70;91.80;;;;;;5015872;28;19990;-44
2022/11/18 05:06:46;;;;;;;;;;;3.70;91.90;;;;;;5014713;28;19906;-43
2022/11/18 05:09:12;;;;;;;;;;;3.70;91.60;;;;;;5011275;28;19920;-44
2022/11/18 05:14:26;;;;;;;;;;;3.70;91.50;;;;;;5009957;28;20047;-43
2022/11/18 05:16:53;;;;;;;;;;;3.60;91.40;;;;;;5010767;28;19972;-42
2022/11/18 05:19:20;;;;;;;;;;;3.60;91.60;;;;;;5014016;28;19909;-43
2022/11/18 05:21:50;;;;;;;;;;;3.70;91.60;;;;;;5014418;28;20335;-43
2022/11/18 05:24:17;;;;;;;;;;;3.70;91.50;;;;;;5013544;28;19971;-44
2022/11/18 05:26:46;;;;;;;;;;;3.60;91.40;;;;;;5014558;28;19917;-42
2022/11/18 05:29:13;;;;;;;;;;;3.60;91.40;;;;;;5013121;28;19905;-44
2022/11/18 05:31:38;;;;;;;;;;;3.60;91.50;;;;;;5015829;28;19919;-43
2022/11/18 05:34:04;;;;;;;;;;;3.60;91.40;;;;;;5013731;28;20242;-44
2022/11/18 05:36:31;;;;;;;;;;;3.50;91.40;;;;;;5015376;28;19917;-44
2022/11/18 05:39:00;;;;;;;;;;;3.60;91.50;;;;;;5014387;28;20794;-43
2022/11/18 05:44:12;;;;;;;;;;;3.50;91.40;;;;;;5004334;28;20354;-43
2022/11/18 05:46:39;;;;;;;;;;;3.50;91.40;;;;;;4995267;28;19909;-45
2022/11/18 05:49:08;;;;;;;;;;;3.50;91.40;;;;;;4995975;28;20009;-44
2022/11/18 05:51:34;;;;;;;;;;;3.50;91.50;;;;;;5011018;28;20709;-44
2022/11/18 05:54:05;;;;;;;;;;;3.40;91.40;;;;;;5000511;28;19910;-44
2022/11/18 05:56:39;;;;;;;;;;;3.40;91.70;;;;;;5015427;28;19971;-45
2022/11/18 05:59:06;;;;;;;;;;;3.50;91.70;;;;;;5015413;28;20012;-45
2022/11/18 06:01:50;;;;;;;;;;;3.50;91.70;;;;;;5012651;28;19920;-44
2022/11/18 06:04:34;;;;;;;;;;;3.40;91.60;;;;;;5011078;28;19920;-45
2022/11/18 06:07:12;;;;;;;;;;;3.40;91.80;;;;;;4997625;28;19956;-47
2022/11/18 06:09:42;;;;;;;;;;;3.40;91.90;;;;;;4995072;28;19967;-46
2022/11/18 06:12:08;;;;;;;;;;;3.40;91.80;;;;;;4995328;28;19917;-47
2022/11/18 06:14:52;;;;;;;;;;;3.40;91.80;;;;;;4995632;28;19910;-45
2022/11/18 06:17:20;;;;;;;;;;;3.50;91.90;;;;;;5012223;28;19924;-46
2022/11/18 06:19:47;;;;;;;;;;;3.40;91.90;;;;;;5014484;28;19964;-46
2022/11/18 06:22:13;;;;;;;;;;;3.40;91.80;;;;;;5013907;28;19999;-46
2022/11/18 06:24:40;;;;;;;;;;;3.40;91.90;;;;;;5012714;28;19976;-46
2022/11/18 06:27:06;;;;;;;;;;;3.40;91.80;;;;;;5011916;28;19959;-48
2022/11/18 06:29:33;;;;;;;;;;;3.40;91.80;;;;;;5011037;28;19917;-51
2022/11/18 06:32:00;;;;;;;;;;;3.40;91.80;;;;;;5011048;28;19909;-54
2022/11/18 06:34:26;;;;;;;;;;;3.40;91.70;;;;;;5010452;28;19909;-52
2022/11/18 06:36:53;;;;;;;;;;;3.40;91.90;;;;;;5010880;28;20327;-52
2022/11/18 06:39:20;;;;;;;;;;;3.40;92.00;;;;;;5009662;28;19910;-50
2022/11/18 06:41:47;;;;;;;;;;;3.40;92.00;;;;;;5004752;28;19909;-54
2022/11/18 06:44:14;;;;;;;;;;;3.40;91.90;;;;;;5013937;28;19918;-55
2022/11/18 06:46:56;;;;;;;;;;;3.40;92.00;;;;;;5010257;28;19913;-51
2022/11/18 06:49:23;;;;;;;;;;;3.40;92.10;;;;;;5013067;28;19913;-53
2022/11/18 06:51:51;;;;;;;;;;;3.30;91.90;;;;;;5012949;28;20327;-49
2022/11/18 06:54:17;;;;;;;;;;;3.20;92.10;;;;;;5012718;28;19925;-49
2022/11/18 06:56:43;;;;;;;;;;;3.30;92.30;;;;;;5012930;28;19910;-49
2022/11/18 06:59:09;;;;;;;;;;;3.30;92.30;;;;;;5013578;28;19917;-48
2022/11/18 07:01:37;;;;;;;;;;;3.30;92.20;;;;;;5011421;28;19920;-49
2022/11/18 07:04:04;;;;;;;;;;;3.20;92.20;;;;;;5012122;28;19917;-48
2022/11/18 07:06:32;;;;;;;;;;;3.30;92.30;;;;;;5013184;28;20451;-47
2022/11/18 07:09:05;;;;;;;;;;;3.20;92.20;;;;;;5011237;28;20383;-47
2022/11/18 07:11:37;;;;;;;;;;;3.20;92.30;;;;;;5011828;28;19981;-51
2022/11/18 07:14:03;;;;;;;;;;;3.20;92.30;;;;;;5013021;28;19936;-47
2022/11/18 07:16:30;;;;;;;;;;;3.20;92.30;;;;;;5011080;28;19952;-47
2022/11/18 07:18:59;;;;;;;;;;;3.30;92.20;;;;;;5011421;28;19998;-48
2022/11/18 07:21:26;;;;;;;;;;;3.30;92.20;;;;;;5011765;28;19910;-46
2022/11/18 07:23:54;;;;;;;;;;;3.20;92.00;;;;;;5012405;28;19944;-48
2022/11/18 07:26:20;;;;;;;;;;;3.20;91.90;;;;;;5010366;28;19913;-48
2022/11/18 07:28:49;;;;;;;;;;;3.20;91.90;;;;;;5013349;28;19924;-46
2022/11/18 07:31:19;;;;;;;;;;;3.20;91.90;;;;;;5006546;28;19906;-46
2022/11/18 07:33:46;;;;;;;;;;;3.20;91.90;;;;;;5004241;28;19913;-47
2022/11/18 07:36:20;;;;;;;;;;;3.30;91.90;;;;;;5012568;28;20361;-46
2022/11/18 07:38:47;;;;;;;;;;;3.20;91.90;;;;;;4993954;28;19937;-46
2022/11/18 07:41:15;;;;;;;;;;;3.20;91.70;;;;;;5005887;28;20401;-46
2022/11/18 07:43:42;;;;;;;;;;;3.30;91.90;;;;;;5007525;28;19925;-46
2022/11/18 07:46:20;;;;;;;;;;;3.30;91.90;;;;;;5011709;28;19909;-46
2022/11/18 07:48:47;;;;;;;;;;;3.20;91.60;;;;;;5013026;28;19909;-45
2022/11/18 07:51:16;;;;;;;;;;;3.30;91.70;;;;;;5007818;28;19941;-46
2022/11/18 07:53:43;;;;;;;;;;;3.30;91.80;;;;;;4996460;28;19909;-45
2022/11/18 07:56:10;;;;;;;;;;;3.40;91.80;;;;;;5008232;28;19906;-47
2022/11/18 07:58:37;;;;;;;;;;;3.30;91.50;;;;;;5009973;28;19945;-45
2022/11/18 08:01:11;;;;;;;;;;;3.30;91.50;;;;;;5007804;28;19916;-47
2022/11/18 08:03:37;;;;;;;;;;;3.40;91.70;;;;;;5010558;28;19972;-45
2022/11/18 08:06:04;;;;;;;;;;;3.40;91.60;;;;;;5011795;28;20366;-45
2022/11/18 08:08:31;;;;;;;;;;;3.40;91.20;;;;;;5008536;28;19961;-46
2022/11/18 08:11:02;;;;;;;;;;;3.30;91.30;;;;;;5016891;28;19939;-45
2022/11/18 08:13:29;;;;;;;;;;;3.30;91.30;;;;;;5017579;28;20353;-45
2022/11/18 08:15:57;;;;;;;;;;;3.30;91.00;;;;;;5016541;28;20242;-45
2022/11/18 08:18:24;;;;;;;;;;;3.20;91.00;;;;;;5011667;28;19940;-45
2022/11/18 08:20:50;;;;;;;;;;;3.20;91.00;;;;;;5018938;28;19912;-45
2022/11/18 08:23:17;;;;;;;;;;;3.20;90.90;;;;;;5005085;28;19953;-45
2022/11/18 08:25:44;;;;;;;;;;;3.20;91.00;;;;;;5014748;28;19917;-44
2022/11/18 08:28:13;;;;;;;;;;;3.10;90.80;;;;;;4999338;28;19949;-44
2022/11/18 08:30:41;;;;;;;;;;;3.10;90.90;;;;;;5018103;28;19987;-45
2022/11/18 08:33:06;;;;;;;;;;;3.10;90.90;;;;;;5002647;28;20351;-44
2022/11/18 08:35:32;;;;;;;;;;;3.20;91.00;;;;;;4999967;28;20016;-45
2022/11/18 08:37:59;;;;;;;;;;;3.20;91.00;;;;;;4999911;28;19921;-47
2022/11/18 08:40:26;;;;;;;;;;;3.10;90.70;;;;;;5013817;28;19917;-45
2022/11/18 08:42:55;;;;;;;;;;;3.10;90.70;;;;;;4999550;28;19909;-45
2022/11/18 08:45:22;;;;;;;;;;;3.00;90.70;;;;;;4998664;28;19909;-48
2022/11/18 08:47:49;;;;;;;;;;;3.00;90.80;;;;;;4999766;28;19913;-47
2022/11/18 08:50:16;;;;;;;;;;;3.10;90.90;;;;;;4999581;28;19913;-46
2022/11/18 08:52:43;;;;;;;;;;;3.10;90.90;;;;;;4999526;28;19913;-45
2022/11/18 08:55:09;;;;;;;;;;;3.00;90.70;;;;;;4999401;28;19913;-44
2022/11/18 08:57:35;;;;;;;;;;;3.00;90.70;;;;;;4999450;28;19910;-44
2022/11/18 09:00:07;;;;;;;;;;;3.00;90.50;;;;;;4999757;28;19906;-46
2022/11/18 09:02:33;;;;;;;;;;;3.00;90.80;;;;;;5014890;28;19967;-44
2022/11/18 09:05:01;;;;;;;;;;;3.00;90.70;;;;;;5018183;28;19909;-46
2022/11/18 09:07:26;;;;;;;;;;;3.00;90.50;;;;;;5016862;28;19969;-46
2022/11/18 09:09:53;;;;;;;;;;;3.00;90.50;;;;;;5017705;28;20017;-45
2022/11/18 09:12:20;;;;;;;;;;;3.00;90.60;;;;;;5018964;28;20388;-45
2022/11/18 09:14:46;;;;;;;;;;;2.90;90.50;;;;;;5014410;28;19910;-44
2022/11/18 09:17:16;;;;;;;;;;;2.90;90.60;;;;;;4999421;28;20331;-43
2022/11/18 09:19:43;;;;;;;;;;;2.90;90.30;;;;;;4997780;28;19914;-44
2022/11/18 09:22:10;;;;;;;;;;;3.00;90.30;;;;;;5000319;28;20379;-44
2022/11/18 09:24:38;;;;;;;;;;;2.90;89.90;;;;;;5014528;28;20255;-44
2022/11/18 09:27:05;;;;;;;;;;;3.00;90.10;;;;;;5003990;28;19913;-43
2022/11/18 09:29:33;;;;;;;;;;;3.00;90.20;;;;;;4995791;28;19909;-43
2022/11/18 09:32:00;;;;;;;;;;;3.00;89.90;;;;;;4997339;28;20258;-43
2022/11/18 09:34:27;;;;;;;;;;;3.10;89.90;;;;;;5011733;28;19909;-47
2022/11/18 09:36:55;;;;;;;;;;;3.10;90.00;;;;;;5011418;28;19910;-44
2022/11/18 09:39:21;;;;;;;;;;;3.10;89.80;;;;;;5014362;28;19913;-44
2022/11/18 09:42:05;;;;;;;;;;;3.10;89.70;;;;;;5014899;28;20315;-47
2022/11/18 09:44:50;;;;;;;;;;;3.10;89.50;;;;;;4998984;28;19960;-46
2022/11/18 09:47:34;;;;;;;;;;;3.10;89.70;;;;;;5001372;28;20000;-48
2022/11/18 09:50:03;;;;;;;;;;;3.10;89.50;;;;;;5013656;28;19910;-42
2022/11/18 09:52:38;;;;;;;;;;;3.10;89.60;;;;;;5014728;28;19941;-44
2022/11/18 09:55:11;;;;;;;;;;;3.10;89.60;;;;;;5009026;28;20239;-43
2022/11/18 09:57:55;;;;;;;;;;;3.10;89.60;;;;;;5004666;28;20223;-44
2022/11/18 10:00:31;;;;;;;;;;;3.20;89.50;;;;;;5014888;28;19909;-44
2022/11/18 10:03:00;;;;;;;;;;;3.10;89.10;;;;;;5008698;28;19914;-45
2022/11/18 10:05:28;;;;;;;;;;;3.00;89.00;;;;;;4995509;28;19921;-44
2022/11/18 10:08:12;;;;;;;;;;;3.00;89.30;;;;;;4995235;28;19918;-44
2022/11/18 10:11:01;;;;;;;;;;;3.00;88.90;;;;;;4994947;28;19909;-43
2022/11/18 10:13:45;;;;;;;;;;;3.10;88.70;;;;;;5009727;28;19945;-44
2022/11/18 10:16:29;;;;;;;;;;;3.00;88.80;;;;;;4995359;28;19952;-43
2022/11/18 10:18:57;;;;;;;;;;;3.10;88.70;;;;;;4995203;28;19905;-43
2022/11/18 10:21:32;;;;;;;;;;;3.20;88.90;;;;;;4994926;28;19968;-43
2022/11/18 10:24:25;;;;;;;;;;;3.20;88.60;;;;;;5010172;28;19910;-42
2022/11/18 10:26:56;;;;;;;;;;;3.10;88.10;;;;;;4999666;28;19909;-43
2022/11/18 10:29:23;;;;;;;;;;;3.20;88.70;;;;;;5011855;28;19914;-42
2022/11/18 10:32:07;;;;;;;;;;;3.20;88.10;;;;;;5012450;28;19909;-42
2022/11/18 10:34:34;;;;;;;;;;;3.20;88.30;;;;;;4994754;28;19997;-43
2022/11/18 10:37:20;;;;;;;;;;;3.30;88.30;;;;;;4994268;28;19906;-43
2022/11/18 10:39:54;;;;;;;;;;;3.40;88.10;;;;;;5001331;28;19909;-43
2022/11/18 10:42:38;;;;;;;;;;;3.30;87.90;;;;;;5012162;28;19914;-43
2022/11/18 10:45:22;;;;;;;;;;;3.40;88.20;;;;;;5012085;28;20275;-43
2022/11/18 10:48:20;;;;;;;;;;;3.30;88.10;;;;;;5013157;28;19952;-43
2022/11/18 10:51:04;;;;;;;;;;;3.40;88.10;;;;;;5000518;28;19921;-43
2022/11/18 10:53:48;;;;;;;;;;;3.40;88.00;;;;;;5006567;28;19944;-42
2022/11/18 10:56:17;;;;;;;;;;;3.40;88.00;;;;;;5013625;28;20374;-43
2022/11/18 10:58:45;;;;;;;;;;;3.30;87.90;;;;;;5014210;28;19909;-42
2022/11/18 11:01:29;;;;;;;;;;;3.20;88.20;;;;;;4997513;28;19968;-42
2022/11/18 11:03:59;;;;;;;;;;;3.30;87.80;;;;;;5009946;28;19914;-42
2022/11/18 11:06:43;;;;;;;;;;;3.20;87.90;;;;;;4994517;28;19961;-42
2022/11/18 11:09:15;;;;;;;;;;;3.30;88.30;;;;;;4993622;28;19917;-43
2022/11/18 11:11:59;;;;;;;;;;;3.40;88.50;;;;;;4994138;28;20286;-42
2022/11/18 11:14:54;;;;;;;;;;;3.30;87.90;;;;;;4994415;28;19914;-42
2022/11/18 11:17:37;;;;;;;;;;;3.30;88.20;;;;;;4993253;28;19953;-42
2022/11/18 11:20:12;;;;;;;;;;;3.30;88.00;;;;;;4994298;28;20255;-42
2022/11/18 11:22:40;;;;;;;;;;;3.40;87.80;;;;;;4994371;28;20450;-43
2022/11/18 11:25:21;;;;;;;;;;;3.40;87.90;;;;;;5008472;28;20004;-41
2022/11/18 11:28:05;;;;;;;;;;;3.30;87.60;;;;;;4998931;28;19913;-42
2022/11/18 11:30:38;;;;;;;;;;;3.30;87.50;;;;;;5010397;28;19961;-42
2022/11/18 11:33:23;;;;;;;;;;;3.10;87.40;;;;;;5010334;28;20076;-41
2022/11/18 11:35:57;;;;;;;;;;;3.20;87.90;;;;;;5012486;28;19909;-43
2022/11/18 11:38:41;;;;;;;;;;;3.30;88.20;;;;;;5010666;28;19917;-42
2022/11/18 11:41:25;;;;;;;;;;;3.40;88.20;;;;;;5011215;28;19913;-42
2022/11/18 11:44:09;;;;;;;;;;;3.40;88.10;;;;;;5011274;28;20783;-42
2022/11/18 11:49:56;;;;;;;;;;;3.40;87.60;;;;;;4993278;28;19932;-41
2022/11/18 11:52:40;;;;;;;;;;;3.30;87.60;;;;;;4993675;28;20339;-42
2022/11/18 11:55:24;;;;;;;;;;;3.40;87.40;;;;;;5006965;28;19956;-42
2022/11/18 11:58:02;;;;;;;;;;;3.20;87.40;;;;;;5012635;28;19918;-42
2022/11/18 12:00:31;;;;;;;;;;;3.20;87.60;;;;;;5012866;28;19913;-41
2022/11/18 12:03:15;;;;;;;;;;;3.20;87.50;;;;;;5005129;28;19921;-41
2022/11/18 12:05:42;;;;;;;;;;;3.20;87.50;;;;;;5008397;28;19936;-44
2022/11/18 12:08:21;;;;;;;;;;;3.20;87.50;;;;;;5012680;28;19929;-42
2022/11/18 12:11:06;;;;;;;;;;;3.30;87.70;;;;;;5009123;28;19964;-42
2022/11/18 12:13:39;;;;;;;;;;;3.30;87.30;;;;;;5011794;28;19909;-44
2022/11/18 12:16:11;;;;;;;;;;;3.20;86.70;;;;;;5025375;28;19910;-42
2022/11/18 12:18:56;;;;;;;;;;;3.20;86.70;;;;;;5011098;28;19971;-43
2022/11/18 12:21:39;;;;;;;;;;;3.20;86.40;;;;;;5010482;28;19910;-42
2022/11/18 12:24:29;;;;;;;;;;;3.20;87.10;;;;;;5010985;28;20003;-43
2022/11/18 12:27:00;;;;;;;;;;;3.20;87.20;;;;;;5010974;28;19909;-41
2022/11/18 12:29:42;;;;;;;;;;;3.20;86.90;;;;;;5013164;28;19921;-42
2022/11/18 12:32:26;;;;;;;;;;;3.30;86.90;;;;;;4992279;28;19917;-43
2022/11/18 12:34:58;;;;;;;;;;;3.40;87.30;;;;;;5004120;28;19914;-42
2022/11/18 12:37:26;;;;;;;;;;;3.50;87.20;;;;;;5012063;28;20232;-43
2022/11/18 12:40:10;;;;;;;;;;;3.40;86.20;;;;;;5001475;28;19910;-42
2022/11/18 12:45:39;;;;;;;;;;;3.30;85.50;;;;;;5001835;28;20350;-43
2022/11/18 12:48:25;;;;;;;;;;;3.30;86.10;;;;;;4992968;28;19906;-43
2022/11/18 12:50:53;;;;;;;;;;;3.40;86.40;;;;;;5012041;28;19909;-42
2022/11/18 12:53:37;;;;;;;;;;;3.40;85.80;;;;;;5012909;28;19920;-43
2022/11/18 12:56:23;;;;;;;;;;;3.40;86.00;;;;;;5010486;28;19918;-44
2022/11/18 12:58:53;;;;;;;;;;;3.30;85.80;;;;;;5011494;28;19956;-42
2022/11/18 13:01:29;;;;;;;;;;;3.20;86.10;;;;;;5006088;28;19922;-42
2022/11/18 13:04:07;;;;;;;;;;;3.20;86.00;;;;;;5015855;28;19909;-42
2022/11/18 13:06:36;;;;;;;;;;;3.20;85.70;;;;;;5016073;28;20370;-44
2022/11/18 13:09:04;;;;;;;;;;;3.10;85.20;;;;;;5001484;28;20247;-45
2022/11/18 13:11:43;;;;;;;;;;;3.20;85.80;;;;;;4996643;28;19914;-42
2022/11/18 13:20:20;;;;;;;;;;;3.30;85.70;;;;;;4996381;28;20255;-42
2022/11/18 13:25:35;;;;;;;;;;;3.50;85.30;;;;;;4996754;28;20638;-42
2022/11/18 13:28:24;;;;;;;;;;;3.50;85.20;;;;;;4997632;28;19940;-43
2022/11/18 13:30:56;;;;;;;;;;;3.60;84.70;;;;;;5009509;28;19913;-44
2022/11/18 13:33:22;;;;;;;;;;;3.60;84.50;;;;;;5015833;28;21453;-46
2022/11/18 13:35:50;;;;;;;;;;;3.60;84.50;;;;;;5004837;28;19960;-44
2022/11/18 13:38:25;;;;;;;;;;;3.60;84.20;;;;;;5011556;28;19910;-43
2022/11/18 13:41:07;;;;;;;;;;;3.60;83.90;;;;;;5013807;28;20323;-43
2022/11/18 13:43:33;;;;;;;;;;;3.50;83.30;;;;;;4995572;28;19952;-45
2022/11/18 13:46:03;;;;;;;;;;;3.50;83.30;;;;;;5008609;28;19932;-43
2022/11/18 13:48:31;;;;;;;;;;;3.40;82.30;;;;;;5009500;28;20008;-44
2022/11/18 13:50:59;;;;;;;;;;;3.40;82.40;;;;;;5012382;28;19910;-45
2022/11/18 13:53:33;;;;;;;;;;;3.40;82.10;;;;;;5011229;28;19997;-44
2022/11/18 13:56:17;;;;;;;;;;;3.40;81.20;;;;;;5012442;28;19909;-44
2022/11/18 13:58:55;;;;;;;;;;;3.20;80.50;;;;;;4994308;28;19914;-46
2022/11/18 14:01:39;;;;;;;;;;;3.20;80.70;;;;;;5006351;28;20024;-47
2022/11/18 14:04:16;;;;;;;;;;;3.20;81.40;;;;;;5014441;28;19913;-43
2022/11/18 14:06:42;;;;;;;;;;;3.20;80.90;;;;;;5009790;28;19914;-44
2022/11/18 14:09:26;;;;;;;;;;;3.10;80.40;;;;;;4999652;28;19921;-45
2022/11/18 14:12:06;;;;;;;;;;;3.20;80.70;;;;;;5002939;28;19914;-44
2022/11/18 14:14:40;;;;;;;;;;;3.10;80.00;;;;;;4998315;28;19914;-44
2022/11/18 14:17:21;;;;;;;;;;;3.10;80.10;;;;;;5000624;28;19914;-45
2022/11/18 14:20:01;;;;;;;;;;;3.20;80.80;;;;;;5009052;28;19905;-47
2022/11/18 14:22:31;;;;;;;;;;;3.10;79.80;;;;;;4998448;28;19932;-47
2022/11/18 14:25:17;;;;;;;;;;;3.10;79.40;;;;;;5003714;28;19932;-44
2022/11/18 14:27:47;;;;;;;;;;;3.20;79.80;;;;;;5009312;28;19909;-45
2022/11/18 14:30:33;;;;;;;;;;;3.20;80.30;;;;;;5006284;28;19920;-44
2022/11/18 14:33:02;;;;;;;;;;;3.20;79.00;;;;;;5009247;28;19920;-46
2022/11/18 14:35:28;;;;;;;;;;;3.10;79.10;;;;;;5001346;28;19913;-44
2022/11/18 14:37:55;;;;;;;;;;;3.20;79.40;;;;;;4996766;28;19910;-45
2022/11/18 14:40:22;;;;;;;;;;;3.20;79.60;;;;;;4996318;28;19916;-44
2022/11/18 14:42:49;;;;;;;;;;;3.20;78.70;;;;;;5001130;28;19925;-44
2022/11/18 14:45:15;;;;;;;;;;;3.10;79.20;;;;;;4994081;28;19994;-45
2022/11/18 14:47:43;;;;;;;;;;;3.20;78.60;;;;;;4998271;28;19918;-43
2022/11/18 14:50:14;;;;;;;;;;;3.00;78.60;;;;;;5007132;28;20315;-43
2022/11/18 14:52:40;;;;;;;;;;;3.00;78.40;;;;;;5005737;28;19913;-44
2022/11/18 14:55:06;;;;;;;;;;;3.00;79.00;;;;;;5006250;28;19925;-44
2022/11/18 14:57:33;;;;;;;;;;;2.90;79.30;;;;;;4997084;28;19914;-43
2022/11/18 14:59:59;;;;;;;;;;;2.90;79.40;;;;;;4998178;28;19914;-45
2022/11/18 15:02:26;;;;;;;;;;;3.00;79.60;;;;;;4997269;28;20366;-44
2022/11/18 15:04:53;;;;;;;;;;;3.00;79.30;;;;;;5012668;28;20317;-44
2022/11/18 15:07:18;;;;;;;;;;;2.90;78.50;;;;;;4996222;28;20024;-46
2022/11/18 15:09:49;;;;;;;;;;;2.90;78.00;;;;;;5008144;28;20016;-44
2022/11/18 15:12:16;;;;;;;;;;;2.90;77.00;;;;;;5001190;28;19909;-44
2022/11/18 15:14:43;;;;;;;;;;;2.90;76.50;;;;;;5007502;28;20338;-44
2022/11/18 15:17:10;;;;;;;;;;;2.80;76.80;;;;;;5003892;28;19975;-46
2022/11/18 15:19:39;;;;;;;;;;;2.90;77.00;;;;;;4998684;28;20008;-44
2022/11/18 15:22:06;;;;;;;;;;;2.90;77.80;;;;;;4997039;28;19909;-43
2022/11/18 15:24:33;;;;;;;;;;;2.90;77.60;;;;;;5007204;28;20615;-44
2022/11/18 15:27:03;;;;;;;;;;;2.90;76.40;;;;;;5004338;28;20296;-45
2022/11/18 15:29:30;;;;;;;;;;;2.90;76.30;;;;;;4997889;28;19941;-44